sensor_id;sensor_type;location;lat;lon;timestamp;P1;durP1;ratioP1;P2;durP2;ratioP2
36009;SDS011;22076;52.182;5.404;2023-04-25T00:00:11;14.48;;;3.75;;
36009;SDS011;22076;52.182;5.404;2023-04-25T00:02:38;14.05;;;3.47;;
36009;SDS011;22076;52.182;5.404;2023-04-25T00:05:04;18.70;;;5.00;;
36009;SDS011;22076;52.182;5.404;2023-04-25T00:07:31;17.45;;;4.00;;
36009;SDS011;22076;52.182;5.404;2023-04-25T00:09:58;19.60;;;5.05;;
36009;SDS011;22076;52.182;5.404;2023-04-25T00:12:24;16.55;;;3.75;;
36009;SDS011;22076;52.182;5.404;2023-04-25T00:14:54;21.05;;;5.28;;
36009;SDS011;22076;52.182;5.404;2023-04-25T00:17:22;15.73;;;4.45;;
36009;SDS011;22076;52.182;5.404;2023-04-25T00:19:51;15.35;;;4.25;;
36009;SDS011;22076;52.182;5.404;2023-04-25T00:22:18;15.25;;;4.95;;
36009;SDS011;22076;52.182;5.404;2023-04-25T00:24:44;11.50;;;3.47;;
36009;SDS011;22076;52.182;5.404;2023-04-25T00:27:11;16.13;;;3.75;;
36009;SDS011;22076;52.182;5.404;2023-04-25T00:29:37;22.13;;;4.63;;
36009;SDS011;22076;52.182;5.404;2023-04-25T00:32:05;13.60;;;4.13;;
36009;SDS011;22076;52.182;5.404;2023-04-25T00:34:32;11.52;;;4.45;;
36009;SDS011;22076;52.182;5.404;2023-04-25T00:36:58;11.65;;;3.85;;
36009;SDS011;22076;52.182;5.404;2023-04-25T00:39:26;27.20;;;4.75;;
36009;SDS011;22076;52.182;5.404;2023-04-25T00:41:53;29.67;;;5.68;;
36009;SDS011;22076;52.182;5.404;2023-04-25T00:44:20;13.60;;;4.22;;
36009;SDS011;22076;52.182;5.404;2023-04-25T00:46:47;15.77;;;4.15;;
36009;SDS011;22076;52.182;5.404;2023-04-25T00:49:15;15.48;;;3.83;;
36009;SDS011;22076;52.182;5.404;2023-04-25T00:51:42;11.98;;;3.45;;
36009;SDS011;22076;52.182;5.404;2023-04-25T00:54:09;14.38;;;4.22;;
36009;SDS011;22076;52.182;5.404;2023-04-25T00:56:35;19.90;;;4.03;;
36009;SDS011;22076;52.182;5.404;2023-04-25T00:59:02;20.65;;;4.57;;
36009;SDS011;22076;52.182;5.404;2023-04-25T01:01:29;14.77;;;3.67;;
36009;SDS011;22076;52.182;5.404;2023-04-25T01:03:56;21.90;;;4.30;;
36009;SDS011;22076;52.182;5.404;2023-04-25T01:06:25;10.55;;;3.42;;
36009;SDS011;22076;52.182;5.404;2023-04-25T01:08:52;21.77;;;4.57;;
36009;SDS011;22076;52.182;5.404;2023-04-25T01:11:19;15.77;;;3.85;;
36009;SDS011;22076;52.182;5.404;2023-04-25T01:13:46;11.20;;;4.10;;
36009;SDS011;22076;52.182;5.404;2023-04-25T01:16:12;11.00;;;3.17;;
36009;SDS011;22076;52.182;5.404;2023-04-25T01:18:39;14.80;;;4.07;;
36009;SDS011;22076;52.182;5.404;2023-04-25T01:21:08;22.15;;;4.63;;
36009;SDS011;22076;52.182;5.404;2023-04-25T01:23:35;14.57;;;4.22;;
36009;SDS011;22076;52.182;5.404;2023-04-25T01:26:02;15.07;;;3.58;;
36009;SDS011;22076;52.182;5.404;2023-04-25T01:28:29;10.85;;;3.20;;
36009;SDS011;22076;52.182;5.404;2023-04-25T01:30:56;11.70;;;4.22;;
36009;SDS011;22076;52.182;5.404;2023-04-25T01:33:23;9.57;;;3.53;;
36009;SDS011;22076;52.182;5.404;2023-04-25T01:35:49;6.82;;;3.00;;
36009;SDS011;22076;52.182;5.404;2023-04-25T01:38:17;12.02;;;3.58;;
36009;SDS011;22076;52.182;5.404;2023-04-25T01:40:44;17.65;;;4.45;;
36009;SDS011;22076;52.182;5.404;2023-04-25T01:43:11;12.40;;;3.50;;
36009;SDS011;22076;52.182;5.404;2023-04-25T01:45:39;7.22;;;3.20;;
36009;SDS011;22076;52.182;5.404;2023-04-25T01:48:06;18.45;;;4.72;;
36009;SDS011;22076;52.182;5.404;2023-04-25T01:50:32;16.83;;;3.67;;
36009;SDS011;22076;52.182;5.404;2023-04-25T01:52:59;10.55;;;3.70;;
36009;SDS011;22076;52.182;5.404;2023-04-25T01:55:28;15.07;;;4.00;;
36009;SDS011;22076;52.182;5.404;2023-04-25T01:57:54;16.45;;;4.50;;
36009;SDS011;22076;52.182;5.404;2023-04-25T02:00:21;11.52;;;3.65;;
36009;SDS011;22076;52.182;5.404;2023-04-25T02:02:48;13.75;;;3.33;;
36009;SDS011;22076;52.182;5.404;2023-04-25T02:05:15;11.63;;;3.50;;
36009;SDS011;22076;52.182;5.404;2023-04-25T02:07:42;7.38;;;3.22;;
36009;SDS011;22076;52.182;5.404;2023-04-25T02:10:09;12.93;;;3.78;;
36009;SDS011;22076;52.182;5.404;2023-04-25T02:12:37;12.95;;;3.13;;
36009;SDS011;22076;52.182;5.404;2023-04-25T02:15:03;10.30;;;4.03;;
36009;SDS011;22076;52.182;5.404;2023-04-25T02:17:31;11.77;;;3.35;;
36009;SDS011;22076;52.182;5.404;2023-04-25T02:19:58;7.55;;;3.42;;
36009;SDS011;22076;52.182;5.404;2023-04-25T02:22:25;15.15;;;3.33;;
36009;SDS011;22076;52.182;5.404;2023-04-25T02:24:52;14.80;;;3.83;;
36009;SDS011;22076;52.182;5.404;2023-04-25T02:27:19;9.57;;;3.45;;
36009;SDS011;22076;52.182;5.404;2023-04-25T02:29:47;15.20;;;3.95;;
36009;SDS011;22076;52.182;5.404;2023-04-25T02:32:13;11.10;;;3.03;;
36009;SDS011;22076;52.182;5.404;2023-04-25T02:34:39;8.15;;;3.33;;
36009;SDS011;22076;52.182;5.404;2023-04-25T02:37:06;13.40;;;3.90;;
36009;SDS011;22076;52.182;5.404;2023-04-25T02:39:32;8.85;;;3.10;;
36009;SDS011;22076;52.182;5.404;2023-04-25T02:41:59;14.73;;;4.10;;
36009;SDS011;22076;52.182;5.404;2023-04-25T02:44:26;8.48;;;2.85;;
36009;SDS011;22076;52.182;5.404;2023-04-25T02:46:53;8.30;;;2.67;;
36009;SDS011;22076;52.182;5.404;2023-04-25T02:49:20;12.27;;;3.30;;
36009;SDS011;22076;52.182;5.404;2023-04-25T02:51:46;8.85;;;2.85;;
36009;SDS011;22076;52.182;5.404;2023-04-25T02:54:13;7.28;;;2.95;;
36009;SDS011;22076;52.182;5.404;2023-04-25T02:56:39;14.00;;;3.55;;
36009;SDS011;22076;52.182;5.404;2023-04-25T02:59:06;9.13;;;3.25;;
36009;SDS011;22076;52.182;5.404;2023-04-25T03:01:32;7.97;;;2.55;;
36009;SDS011;22076;52.182;5.404;2023-04-25T03:04:00;15.95;;;3.95;;
36009;SDS011;22076;52.182;5.404;2023-04-25T03:06:27;18.60;;;3.45;;
36009;SDS011;22076;52.182;5.404;2023-04-25T03:08:53;7.20;;;3.05;;
36009;SDS011;22076;52.182;5.404;2023-04-25T03:11:20;10.65;;;3.08;;
36009;SDS011;22076;52.182;5.404;2023-04-25T03:13:46;11.23;;;3.42;;
36009;SDS011;22076;52.182;5.404;2023-04-25T03:16:13;11.63;;;3.38;;
36009;SDS011;22076;52.182;5.404;2023-04-25T03:18:39;10.95;;;3.00;;
36009;SDS011;22076;52.182;5.404;2023-04-25T03:21:07;13.63;;;4.18;;
36009;SDS011;22076;52.182;5.404;2023-04-25T03:23:34;6.63;;;3.22;;
36009;SDS011;22076;52.182;5.404;2023-04-25T03:26:00;8.32;;;3.28;;
36009;SDS011;22076;52.182;5.404;2023-04-25T03:28:27;20.50;;;5.38;;
36009;SDS011;22076;52.182;5.404;2023-04-25T03:30:54;19.52;;;3.63;;
36009;SDS011;22076;52.182;5.404;2023-04-25T03:33:20;10.75;;;3.45;;
36009;SDS011;22076;52.182;5.404;2023-04-25T03:35:47;7.70;;;3.28;;
36009;SDS011;22076;52.182;5.404;2023-04-25T03:38:16;12.50;;;4.28;;
36009;SDS011;22076;52.182;5.404;2023-04-25T03:40:42;10.88;;;2.90;;
36009;SDS011;22076;52.182;5.404;2023-04-25T03:43:09;7.10;;;3.08;;
36009;SDS011;22076;52.182;5.404;2023-04-25T03:45:36;17.90;;;4.65;;
36009;SDS011;22076;52.182;5.404;2023-04-25T03:48:03;7.13;;;3.00;;
36009;SDS011;22076;52.182;5.404;2023-04-25T03:50:30;9.43;;;2.50;;
36009;SDS011;22076;52.182;5.404;2023-04-25T03:52:56;14.93;;;3.47;;
36009;SDS011;22076;52.182;5.404;2023-04-25T03:55:24;12.63;;;3.40;;
36009;SDS011;22076;52.182;5.404;2023-04-25T03:57:50;16.80;;;3.75;;
36009;SDS011;22076;52.182;5.404;2023-04-25T04:00:17;12.45;;;3.95;;
36009;SDS011;22076;52.182;5.404;2023-04-25T04:02:43;8.90;;;2.90;;
36009;SDS011;22076;52.182;5.404;2023-04-25T04:05:10;12.23;;;2.90;;
36009;SDS011;22076;52.182;5.404;2023-04-25T04:07:36;7.80;;;2.90;;
36009;SDS011;22076;52.182;5.404;2023-04-25T04:10:05;11.48;;;3.45;;
36009;SDS011;22076;52.182;5.404;2023-04-25T04:12:33;23.90;;;3.17;;
36009;SDS011;22076;52.182;5.404;2023-04-25T04:15:00;13.50;;;3.55;;
36009;SDS011;22076;52.182;5.404;2023-04-25T04:17:28;9.35;;;1.83;;
36009;SDS011;22076;52.182;5.404;2023-04-25T04:19:55;14.85;;;2.70;;
36009;SDS011;22076;52.182;5.404;2023-04-25T04:22:21;12.38;;;2.30;;
36009;SDS011;22076;52.182;5.404;2023-04-25T04:24:48;7.68;;;2.20;;
36009;SDS011;22076;52.182;5.404;2023-04-25T04:27:14;7.13;;;2.10;;
36009;SDS011;22076;52.182;5.404;2023-04-25T04:29:43;6.65;;;2.28;;
36009;SDS011;22076;52.182;5.404;2023-04-25T04:32:10;8.00;;;2.15;;
36009;SDS011;22076;52.182;5.404;2023-04-25T04:34:36;6.95;;;2.22;;
36009;SDS011;22076;52.182;5.404;2023-04-25T04:37:04;7.35;;;2.05;;
36009;SDS011;22076;52.182;5.404;2023-04-25T04:39:32;3.97;;;2.05;;
36009;SDS011;22076;52.182;5.404;2023-04-25T04:41:59;7.57;;;1.95;;
36009;SDS011;22076;52.182;5.404;2023-04-25T04:44:26;9.77;;;2.30;;
36009;SDS011;22076;52.182;5.404;2023-04-25T04:46:54;14.35;;;2.63;;
36009;SDS011;22076;52.182;5.404;2023-04-25T04:49:21;14.00;;;2.97;;
36009;SDS011;22076;52.182;5.404;2023-04-25T04:51:48;6.65;;;1.88;;
36009;SDS011;22076;52.182;5.404;2023-04-25T04:54:14;12.65;;;2.60;;
36009;SDS011;22076;52.182;5.404;2023-04-25T04:56:41;9.00;;;2.25;;
36009;SDS011;22076;52.182;5.404;2023-04-25T04:59:07;9.48;;;2.00;;
36009;SDS011;22076;52.182;5.404;2023-04-25T05:01:35;7.57;;;2.55;;
36009;SDS011;22076;52.182;5.404;2023-04-25T05:04:03;5.88;;;1.88;;
36009;SDS011;22076;52.182;5.404;2023-04-25T05:06:30;7.75;;;2.42;;
36009;SDS011;22076;52.182;5.404;2023-04-25T05:08:57;8.05;;;2.30;;
36009;SDS011;22076;52.182;5.404;2023-04-25T05:11:24;10.18;;;2.83;;
36009;SDS011;22076;52.182;5.404;2023-04-25T05:13:51;3.58;;;1.52;;
36009;SDS011;22076;52.182;5.404;2023-04-25T05:16:18;7.38;;;2.33;;
36009;SDS011;22076;52.182;5.404;2023-04-25T05:18:45;5.22;;;2.05;;
36009;SDS011;22076;52.182;5.404;2023-04-25T05:21:13;8.80;;;2.42;;
36009;SDS011;22076;52.182;5.404;2023-04-25T05:23:40;7.00;;;1.85;;
36009;SDS011;22076;52.182;5.404;2023-04-25T05:26:06;11.52;;;2.63;;
36009;SDS011;22076;52.182;5.404;2023-04-25T05:28:38;7.77;;;2.10;;
36009;SDS011;22076;52.182;5.404;2023-04-25T05:31:05;6.50;;;2.33;;
36009;SDS011;22076;52.182;5.404;2023-04-25T05:33:31;13.63;;;2.45;;
36009;SDS011;22076;52.182;5.404;2023-04-25T05:35:58;9.57;;;2.17;;
36009;SDS011;22076;52.182;5.404;2023-04-25T05:38:26;10.75;;;2.63;;
36009;SDS011;22076;52.182;5.404;2023-04-25T05:40:53;5.90;;;2.38;;
36009;SDS011;22076;52.182;5.404;2023-04-25T05:43:19;11.20;;;2.70;;
36009;SDS011;22076;52.182;5.404;2023-04-25T05:45:46;12.35;;;2.63;;
36009;SDS011;22076;52.182;5.404;2023-04-25T05:48:12;8.75;;;2.45;;
36009;SDS011;22076;52.182;5.404;2023-04-25T05:50:39;10.15;;;2.15;;
36009;SDS011;22076;52.182;5.404;2023-04-25T05:53:05;6.68;;;2.38;;
36009;SDS011;22076;52.182;5.404;2023-04-25T05:55:33;8.93;;;2.75;;
36009;SDS011;22076;52.182;5.404;2023-04-25T05:58:00;5.13;;;2.65;;
36009;SDS011;22076;52.182;5.404;2023-04-25T06:00:26;6.57;;;1.80;;
36009;SDS011;22076;52.182;5.404;2023-04-25T06:02:53;11.35;;;2.70;;
36009;SDS011;22076;52.182;5.404;2023-04-25T06:05:20;10.43;;;3.30;;
36009;SDS011;22076;52.182;5.404;2023-04-25T06:07:46;7.85;;;2.63;;
36009;SDS011;22076;52.182;5.404;2023-04-25T06:10:13;6.05;;;2.45;;
36009;SDS011;22076;52.182;5.404;2023-04-25T06:12:41;14.27;;;2.25;;
36009;SDS011;22076;52.182;5.404;2023-04-25T06:15:08;9.65;;;2.17;;
36009;SDS011;22076;52.182;5.404;2023-04-25T06:17:35;9.90;;;2.40;;
36009;SDS011;22076;52.182;5.404;2023-04-25T06:20:01;8.73;;;2.28;;
36009;SDS011;22076;52.182;5.404;2023-04-25T06:22:28;11.65;;;2.95;;
36009;SDS011;22076;52.182;5.404;2023-04-25T06:24:55;9.43;;;2.08;;
36009;SDS011;22076;52.182;5.404;2023-04-25T06:27:23;8.50;;;2.10;;
36009;SDS011;22076;52.182;5.404;2023-04-25T06:29:51;9.90;;;2.10;;
36009;SDS011;22076;52.182;5.404;2023-04-25T06:32:18;7.53;;;1.88;;
36009;SDS011;22076;52.182;5.404;2023-04-25T06:34:44;11.75;;;2.63;;
36009;SDS011;22076;52.182;5.404;2023-04-25T06:37:11;8.23;;;2.72;;
36009;SDS011;22076;52.182;5.404;2023-04-25T06:39:37;12.05;;;2.67;;
36009;SDS011;22076;52.182;5.404;2023-04-25T06:42:04;10.93;;;2.83;;
36009;SDS011;22076;52.182;5.404;2023-04-25T06:44:30;11.10;;;2.30;;
36009;SDS011;22076;52.182;5.404;2023-04-25T06:46:58;9.00;;;2.28;;
36009;SDS011;22076;52.182;5.404;2023-04-25T06:49:25;10.60;;;2.80;;
36009;SDS011;22076;52.182;5.404;2023-04-25T06:51:51;8.90;;;2.55;;
36009;SDS011;22076;52.182;5.404;2023-04-25T06:54:18;5.90;;;1.92;;
36009;SDS011;22076;52.182;5.404;2023-04-25T06:56:44;14.57;;;2.65;;
36009;SDS011;22076;52.182;5.404;2023-04-25T06:59:11;12.68;;;3.45;;
36009;SDS011;22076;52.182;5.404;2023-04-25T07:01:37;9.38;;;2.65;;
36009;SDS011;22076;52.182;5.404;2023-04-25T07:04:05;16.00;;;3.15;;
36009;SDS011;22076;52.182;5.404;2023-04-25T07:06:32;6.80;;;2.00;;
36009;SDS011;22076;52.182;5.404;2023-04-25T07:08:58;8.18;;;2.50;;
36009;SDS011;22076;52.182;5.404;2023-04-25T07:11:25;10.55;;;2.75;;
36009;SDS011;22076;52.182;5.404;2023-04-25T07:13:51;9.55;;;2.03;;
36009;SDS011;22076;52.182;5.404;2023-04-25T07:16:18;14.40;;;2.63;;
36009;SDS011;22076;52.182;5.404;2023-04-25T07:18:44;6.38;;;2.22;;
36009;SDS011;22076;52.182;5.404;2023-04-25T07:21:12;7.68;;;2.78;;
36009;SDS011;22076;52.182;5.404;2023-04-25T07:23:38;7.15;;;1.85;;
36009;SDS011;22076;52.182;5.404;2023-04-25T07:26:05;6.97;;;1.92;;
36009;SDS011;22076;52.182;5.404;2023-04-25T07:28:32;10.25;;;1.92;;
36009;SDS011;22076;52.182;5.404;2023-04-25T07:30:59;11.65;;;2.30;;
36009;SDS011;22076;52.182;5.404;2023-04-25T07:33:25;11.45;;;2.03;;
36009;SDS011;22076;52.182;5.404;2023-04-25T07:35:52;11.90;;;1.85;;
36009;SDS011;22076;52.182;5.404;2023-04-25T07:38:21;8.55;;;1.88;;
36009;SDS011;22076;52.182;5.404;2023-04-25T07:40:47;8.35;;;1.92;;
36009;SDS011;22076;52.182;5.404;2023-04-25T07:43:14;7.75;;;1.77;;
36009;SDS011;22076;52.182;5.404;2023-04-25T07:45:41;11.50;;;1.98;;
36009;SDS011;22076;52.182;5.404;2023-04-25T07:48:08;7.35;;;2.13;;
36009;SDS011;22076;52.182;5.404;2023-04-25T07:50:35;10.90;;;1.83;;
36009;SDS011;22076;52.182;5.404;2023-04-25T07:53:01;11.80;;;2.20;;
36009;SDS011;22076;52.182;5.404;2023-04-25T07:55:30;10.10;;;1.90;;
36009;SDS011;22076;52.182;5.404;2023-04-25T07:57:56;12.38;;;2.17;;
36009;SDS011;22076;52.182;5.404;2023-04-25T08:00:23;9.13;;;2.00;;
36009;SDS011;22076;52.182;5.404;2023-04-25T08:02:49;7.50;;;1.73;;
36009;SDS011;22076;52.182;5.404;2023-04-25T08:05:16;11.15;;;1.98;;
36009;SDS011;22076;52.182;5.404;2023-04-25T08:07:43;6.00;;;1.92;;
36009;SDS011;22076;52.182;5.404;2023-04-25T08:10:09;6.80;;;1.88;;
36009;SDS011;22076;52.182;5.404;2023-04-25T08:12:37;6.47;;;1.70;;
36009;SDS011;22076;52.182;5.404;2023-04-25T08:15:04;9.05;;;1.88;;
36009;SDS011;22076;52.182;5.404;2023-04-25T08:17:32;3.42;;;1.50;;
36009;SDS011;22076;52.182;5.404;2023-04-25T08:19:58;7.85;;;1.45;;
36009;SDS011;22076;52.182;5.404;2023-04-25T08:22:25;10.05;;;1.60;;
36009;SDS011;22076;52.182;5.404;2023-04-25T08:24:51;9.55;;;1.45;;
36009;SDS011;22076;52.182;5.404;2023-04-25T08:27:18;6.88;;;1.60;;
36009;SDS011;22076;52.182;5.404;2023-04-25T08:29:47;11.52;;;2.17;;
36009;SDS011;22076;52.182;5.404;2023-04-25T08:32:14;6.13;;;1.48;;
36009;SDS011;22076;52.182;5.404;2023-04-25T08:34:40;7.60;;;2.00;;
36009;SDS011;22076;52.182;5.404;2023-04-25T08:37:09;8.18;;;1.70;;
36009;SDS011;22076;52.182;5.404;2023-04-25T08:39:35;5.43;;;1.75;;
36009;SDS011;22076;52.182;5.404;2023-04-25T08:42:02;4.72;;;1.25;;
36009;SDS011;22076;52.182;5.404;2023-04-25T08:44:32;5.80;;;1.55;;
36009;SDS011;22076;52.182;5.404;2023-04-25T08:47:01;3.50;;;1.15;;
36009;SDS011;22076;52.182;5.404;2023-04-25T08:49:29;14.32;;;2.05;;
36009;SDS011;22076;52.182;5.404;2023-04-25T08:51:55;8.73;;;1.30;;
36009;SDS011;22076;52.182;5.404;2023-04-25T08:54:26;7.78;;;1.38;;
36009;SDS011;22076;52.182;5.404;2023-04-25T08:56:54;9.05;;;1.30;;
36009;SDS011;22076;52.182;5.404;2023-04-25T08:59:22;9.10;;;1.60;;
36009;SDS011;22076;52.182;5.404;2023-04-25T09:01:49;10.38;;;1.98;;
36009;SDS011;22076;52.182;5.404;2023-04-25T09:04:17;10.95;;;1.70;;
36009;SDS011;22076;52.182;5.404;2023-04-25T09:06:44;2.38;;;0.95;;
36009;SDS011;22076;52.182;5.404;2023-04-25T09:09:10;8.52;;;1.83;;
36009;SDS011;22076;52.182;5.404;2023-04-25T09:11:37;7.47;;;1.48;;
36009;SDS011;22076;52.182;5.404;2023-04-25T09:14:10;6.97;;;1.63;;
36009;SDS011;22076;52.182;5.404;2023-04-25T09:16:52;7.43;;;1.52;;
36009;SDS011;22076;52.182;5.404;2023-04-25T09:19:26;4.03;;;1.35;;
36009;SDS011;22076;52.182;5.404;2023-04-25T09:21:53;4.57;;;1.13;;
36009;SDS011;22076;52.182;5.404;2023-04-25T09:24:28;5.97;;;1.35;;
36009;SDS011;22076;52.182;5.404;2023-04-25T09:26:56;9.45;;;1.70;;
36009;SDS011;22076;52.182;5.404;2023-04-25T09:29:28;8.45;;;1.38;;
36009;SDS011;22076;52.182;5.404;2023-04-25T09:32:03;4.35;;;1.17;;
36009;SDS011;22076;52.182;5.404;2023-04-25T09:34:40;6.95;;;1.23;;
36009;SDS011;22076;52.182;5.404;2023-04-25T09:37:08;6.93;;;1.20;;
36009;SDS011;22076;52.182;5.404;2023-04-25T09:39:35;9.07;;;1.67;;
36009;SDS011;22076;52.182;5.404;2023-04-25T09:42:02;6.72;;;1.70;;
36009;SDS011;22076;52.182;5.404;2023-04-25T09:44:29;11.85;;;1.65;;
36009;SDS011;22076;52.182;5.404;2023-04-25T09:46:55;4.82;;;1.10;;
36009;SDS011;22076;52.182;5.404;2023-04-25T09:49:22;12.57;;;1.77;;
36009;SDS011;22076;52.182;5.404;2023-04-25T09:51:56;5.25;;;1.42;;
36009;SDS011;22076;52.182;5.404;2023-04-25T09:54:23;7.03;;;1.17;;
36009;SDS011;22076;52.182;5.404;2023-04-25T09:56:51;6.40;;;1.48;;
36009;SDS011;22076;52.182;5.404;2023-04-25T09:59:19;6.47;;;1.17;;
36009;SDS011;22076;52.182;5.404;2023-04-25T10:01:46;8.88;;;1.58;;
36009;SDS011;22076;52.182;5.404;2023-04-25T10:04:15;3.53;;;1.23;;
36009;SDS011;22076;52.182;5.404;2023-04-25T10:06:45;7.13;;;1.45;;
36009;SDS011;22076;52.182;5.404;2023-04-25T10:09:13;4.20;;;1.20;;
36009;SDS011;22076;52.182;5.404;2023-04-25T10:11:40;13.90;;;1.50;;
36009;SDS011;22076;52.182;5.404;2023-04-25T10:14:06;6.25;;;0.98;;
36009;SDS011;22076;52.182;5.404;2023-04-25T10:16:33;7.75;;;1.52;;
36009;SDS011;22076;52.182;5.404;2023-04-25T10:18:59;9.25;;;1.15;;
36009;SDS011;22076;52.182;5.404;2023-04-25T10:21:27;6.63;;;1.23;;
36009;SDS011;22076;52.182;5.404;2023-04-25T10:23:55;6.97;;;1.45;;
36009;SDS011;22076;52.182;5.404;2023-04-25T10:26:23;12.65;;;1.90;;
36009;SDS011;22076;52.182;5.404;2023-04-25T10:28:54;14.00;;;1.75;;
36009;SDS011;22076;52.182;5.404;2023-04-25T10:31:21;5.57;;;1.20;;
36009;SDS011;22076;52.182;5.404;2023-04-25T10:33:48;5.03;;;1.50;;
36009;SDS011;22076;52.182;5.404;2023-04-25T10:36:15;5.18;;;1.25;;
36009;SDS011;22076;52.182;5.404;2023-04-25T10:38:44;7.80;;;1.55;;
36009;SDS011;22076;52.182;5.404;2023-04-25T10:41:12;3.97;;;1.30;;
36009;SDS011;22076;52.182;5.404;2023-04-25T10:43:41;4.72;;;1.02;;
36009;SDS011;22076;52.182;5.404;2023-04-25T10:46:17;6.72;;;1.58;;
36009;SDS011;22076;52.182;5.404;2023-04-25T10:48:45;7.53;;;1.40;;
36009;SDS011;22076;52.182;5.404;2023-04-25T10:51:18;7.15;;;1.80;;
36009;SDS011;22076;52.182;5.404;2023-04-25T10:53:46;4.63;;;1.30;;
36009;SDS011;22076;52.182;5.404;2023-04-25T10:56:16;9.82;;;1.40;;
36009;SDS011;22076;52.182;5.404;2023-04-25T10:58:44;8.45;;;1.30;;
36009;SDS011;22076;52.182;5.404;2023-04-25T11:01:12;4.70;;;1.30;;
36009;SDS011;22076;52.182;5.404;2023-04-25T11:03:40;6.90;;;1.45;;
36009;SDS011;22076;52.182;5.404;2023-04-25T11:06:09;3.42;;;1.30;;
36009;SDS011;22076;52.182;5.404;2023-04-25T11:08:44;6.40;;;1.70;;
36009;SDS011;22076;52.182;5.404;2023-04-25T11:11:14;7.00;;;1.88;;
36009;SDS011;22076;52.182;5.404;2023-04-25T11:13:40;10.25;;;1.75;;
36009;SDS011;22076;52.182;5.404;2023-04-25T11:16:08;5.78;;;1.60;;
36009;SDS011;22076;52.182;5.404;2023-04-25T11:18:35;4.78;;;1.40;;
36009;SDS011;22076;52.182;5.404;2023-04-25T11:21:03;7.57;;;1.73;;
36009;SDS011;22076;52.182;5.404;2023-04-25T11:23:29;6.95;;;1.60;;
36009;SDS011;22076;52.182;5.404;2023-04-25T11:25:56;5.05;;;1.08;;
36009;SDS011;22076;52.182;5.404;2023-04-25T11:28:22;5.00;;;1.55;;
36009;SDS011;22076;52.182;5.404;2023-04-25T11:30:49;4.80;;;1.20;;
36009;SDS011;22076;52.182;5.404;2023-04-25T11:33:17;8.13;;;1.48;;
36009;SDS011;22076;52.182;5.404;2023-04-25T11:35:44;3.58;;;1.20;;
36009;SDS011;22076;52.182;5.404;2023-04-25T11:38:10;7.00;;;1.40;;
36009;SDS011;22076;52.182;5.404;2023-04-25T11:40:37;7.55;;;1.77;;
36009;SDS011;22076;52.182;5.404;2023-04-25T11:43:03;12.02;;;1.30;;
36009;SDS011;22076;52.182;5.404;2023-04-25T11:45:30;6.30;;;1.40;;
36009;SDS011;22076;52.182;5.404;2023-04-25T11:47:57;8.50;;;1.50;;
36009;SDS011;22076;52.182;5.404;2023-04-25T11:50:25;7.82;;;1.40;;
36009;SDS011;22076;52.182;5.404;2023-04-25T11:52:55;6.57;;;2.08;;
36009;SDS011;22076;52.182;5.404;2023-04-25T11:55:22;7.28;;;1.55;;
36009;SDS011;22076;52.182;5.404;2023-04-25T11:57:49;6.90;;;1.38;;
36009;SDS011;22076;52.182;5.404;2023-04-25T12:00:16;6.82;;;1.73;;
36009;SDS011;22076;52.182;5.404;2023-04-25T12:02:44;6.55;;;1.45;;
36009;SDS011;22076;52.182;5.404;2023-04-25T12:05:14;5.03;;;1.52;;
36009;SDS011;22076;52.182;5.404;2023-04-25T12:07:42;3.53;;;1.70;;
36009;SDS011;22076;52.182;5.404;2023-04-25T12:10:10;6.43;;;1.50;;
36009;SDS011;22076;52.182;5.404;2023-04-25T12:12:37;9.68;;;1.58;;
36009;SDS011;22076;52.182;5.404;2023-04-25T12:15:09;8.40;;;1.50;;
36009;SDS011;22076;52.182;5.404;2023-04-25T12:17:36;8.70;;;1.30;;
36009;SDS011;22076;52.182;5.404;2023-04-25T12:20:07;5.22;;;1.55;;
36009;SDS011;22076;52.182;5.404;2023-04-25T12:22:34;6.65;;;1.77;;
36009;SDS011;22076;52.182;5.404;2023-04-25T12:25:03;5.60;;;1.30;;
36009;SDS011;22076;52.182;5.404;2023-04-25T12:27:31;6.03;;;1.38;;
36009;SDS011;22076;52.182;5.404;2023-04-25T12:29:58;5.22;;;1.13;;
36009;SDS011;22076;52.182;5.404;2023-04-25T12:32:25;7.43;;;1.52;;
36009;SDS011;22076;52.182;5.404;2023-04-25T12:34:52;3.97;;;1.40;;
36009;SDS011;22076;52.182;5.404;2023-04-25T12:37:19;3.65;;;1.20;;
36009;SDS011;22076;52.182;5.404;2023-04-25T12:39:45;3.17;;;1.15;;
36009;SDS011;22076;52.182;5.404;2023-04-25T12:42:13;5.20;;;1.25;;
36009;SDS011;22076;52.182;5.404;2023-04-25T12:44:40;3.65;;;0.88;;
36009;SDS011;22076;52.182;5.404;2023-04-25T12:47:06;5.97;;;1.10;;
36009;SDS011;22076;52.182;5.404;2023-04-25T12:49:33;3.03;;;0.95;;
36009;SDS011;22076;52.182;5.404;2023-04-25T12:51:59;4.75;;;1.08;;
36009;SDS011;22076;52.182;5.404;2023-04-25T12:54:26;4.53;;;1.20;;
36009;SDS011;22076;52.182;5.404;2023-04-25T12:56:52;2.80;;;0.93;;
36009;SDS011;22076;52.182;5.404;2023-04-25T12:59:21;6.68;;;1.13;;
36009;SDS011;22076;52.182;5.404;2023-04-25T13:01:48;7.28;;;1.88;;
36009;SDS011;22076;52.182;5.404;2023-04-25T13:04:14;7.03;;;1.40;;
36009;SDS011;22076;52.182;5.404;2023-04-25T13:06:41;4.85;;;0.88;;
36009;SDS011;22076;52.182;5.404;2023-04-25T13:09:07;8.23;;;1.45;;
36009;SDS011;22076;52.182;5.404;2023-04-25T13:11:34;3.78;;;1.25;;
36009;SDS011;22076;52.182;5.404;2023-04-25T13:14:01;6.78;;;1.23;;
36009;SDS011;22076;52.182;5.404;2023-04-25T13:16:29;7.20;;;1.63;;
36009;SDS011;22076;52.182;5.404;2023-04-25T13:18:55;2.92;;;0.90;;
36009;SDS011;22076;52.182;5.404;2023-04-25T13:21:22;7.22;;;1.60;;
36009;SDS011;22076;52.182;5.404;2023-04-25T13:23:48;5.85;;;1.75;;
36009;SDS011;22076;52.182;5.404;2023-04-25T13:26:15;4.60;;;1.05;;
36009;SDS011;22076;52.182;5.404;2023-04-25T13:28:41;4.57;;;1.10;;
36009;SDS011;22076;52.182;5.404;2023-04-25T13:31:08;5.35;;;1.15;;
36009;SDS011;22076;52.182;5.404;2023-04-25T13:33:36;4.22;;;1.25;;
36009;SDS011;22076;52.182;5.404;2023-04-25T13:36:03;7.97;;;1.55;;
36009;SDS011;22076;52.182;5.404;2023-04-25T13:38:30;9.05;;;1.63;;
36009;SDS011;22076;52.182;5.404;2023-04-25T13:40:56;6.43;;;1.52;;
36009;SDS011;22076;52.182;5.404;2023-04-25T13:43:23;7.75;;;1.30;;
36009;SDS011;22076;52.182;5.404;2023-04-25T13:45:50;4.68;;;1.23;;
36009;SDS011;22076;52.182;5.404;2023-04-25T13:48:16;7.07;;;1.50;;
36009;SDS011;22076;52.182;5.404;2023-04-25T13:50:45;3.63;;;1.27;;
36009;SDS011;22076;52.182;5.404;2023-04-25T13:53:11;5.95;;;1.65;;
36009;SDS011;22076;52.182;5.404;2023-04-25T13:55:38;3.38;;;1.13;;
36009;SDS011;22076;52.182;5.404;2023-04-25T13:58:04;7.20;;;1.40;;
36009;SDS011;22076;52.182;5.404;2023-04-25T14:00:33;6.18;;;1.77;;
36009;SDS011;22076;52.182;5.404;2023-04-25T14:03:00;8.55;;;1.38;;
36009;SDS011;22076;52.182;5.404;2023-04-25T14:05:29;4.95;;;1.40;;
36009;SDS011;22076;52.182;5.404;2023-04-25T14:07:57;3.17;;;1.23;;
36009;SDS011;22076;52.182;5.404;2023-04-25T14:10:24;5.25;;;1.42;;
36009;SDS011;22076;52.182;5.404;2023-04-25T14:12:52;6.45;;;1.30;;
36009;SDS011;22076;52.182;5.404;2023-04-25T14:15:18;5.38;;;1.50;;
36009;SDS011;22076;52.182;5.404;2023-04-25T14:17:45;4.07;;;1.30;;
36009;SDS011;22076;52.182;5.404;2023-04-25T14:20:13;4.00;;;1.23;;
36009;SDS011;22076;52.182;5.404;2023-04-25T14:22:39;5.45;;;1.77;;
36009;SDS011;22076;52.182;5.404;2023-04-25T14:25:10;5.00;;;1.30;;
36009;SDS011;22076;52.182;5.404;2023-04-25T14:27:37;3.92;;;1.15;;
36009;SDS011;22076;52.182;5.404;2023-04-25T14:30:03;4.95;;;1.63;;
36009;SDS011;22076;52.182;5.404;2023-04-25T14:32:31;6.85;;;1.25;;
36009;SDS011;22076;52.182;5.404;2023-04-25T14:34:58;5.70;;;1.17;;
36009;SDS011;22076;52.182;5.404;2023-04-25T14:37:24;6.18;;;1.50;;
36009;SDS011;22076;52.182;5.404;2023-04-25T14:39:51;6.13;;;1.27;;
36009;SDS011;22076;52.182;5.404;2023-04-25T14:42:19;6.63;;;1.45;;